createdAt,value
2018-07-28T00:00:08.042Z,50.46
2018-07-28T00:01:08.046Z,50.56
2018-07-28T00:02:08.042Z,50.84
2018-07-28T00:03:07.923Z,50.65
2018-07-28T00:04:07.929Z,50.16
2018-07-28T00:05:07.921Z,49.49
2018-07-28T00:06:07.921Z,51.04
2018-07-28T00:07:07.809Z,50.74
2018-07-28T00:08:07.798Z,50.74
2018-07-28T00:09:07.801Z,51.23
2018-07-28T00:10:07.679Z,51.91
2018-07-28T00:11:07.679Z,51.04
2018-07-28T00:12:07.677Z,51.14
2018-07-28T00:13:07.559Z,50.74
2018-07-28T00:14:07.568Z,50.74
2018-07-28T00:15:07.557Z,50.36
2018-07-28T00:16:07.440Z,51.04
2018-07-28T00:17:07.441Z,50.74
2018-07-28T00:18:07.436Z,51.62
2018-07-28T00:19:07.394Z,51.62
2018-07-28T00:20:07.319Z,52.30
2018-07-28T00:21:07.316Z,52.30
2018-07-28T00:22:07.315Z,51.81
2018-07-28T00:23:07.195Z,51.72
2018-07-28T00:24:07.199Z,50.46
2018-07-28T00:25:07.194Z,50.65
2018-07-28T00:26:07.074Z,50.26
2018-07-28T00:27:07.077Z,50.56
2018-07-28T00:28:07.076Z,51.43
2018-07-28T00:29:06.955Z,51.43
2018-07-28T00:30:06.954Z,52.01
2018-07-28T00:31:06.954Z,51.43
2018-07-28T00:32:06.833Z,50.74
2018-07-28T00:33:06.836Z,51.23
2018-07-28T00:34:06.832Z,52.01
2018-07-28T00:35:06.790Z,52.50
2018-07-28T00:36:06.713Z,51.81
2018-07-28T00:37:06.724Z,52.01
2018-07-28T00:38:06.711Z,53.17
2018-07-28T00:39:06.591Z,51.72
2018-07-28T00:40:06.595Z,52.40
2018-07-28T00:41:06.594Z,54.14
2018-07-28T00:42:06.469Z,54.24
2018-07-28T00:43:06.476Z,54.53
2018-07-28T00:44:06.474Z,55.28
2018-07-28T00:45:06.353Z,54.50
2018-07-28T00:46:06.348Z,52.56
2018-07-28T00:47:06.349Z,54.11
2018-07-28T00:48:06.228Z,54.99
2018-07-28T00:49:06.232Z,55.08
2018-07-28T00:50:06.236Z,55.47
2018-07-28T00:51:06.234Z,55.77
2018-07-28T00:52:06.109Z,56.05
2018-07-28T00:53:06.108Z,55.38
2018-07-28T00:54:06.112Z,55.08
2018-07-28T00:55:05.991Z,55.87
2018-07-28T00:56:05.987Z,55.44
2018-07-28T00:57:05.987Z,55.16
2018-07-28T00:58:05.866Z,55.16
2018-07-28T00:59:05.866Z,55.35
2018-07-28T01:00:05.866Z,56.23
2018-07-28T01:01:05.748Z,56.81
2018-07-28T01:02:05.748Z,57.00
2018-07-28T01:03:05.747Z,57.39
2018-07-28T01:04:05.703Z,54.58
2018-07-28T01:05:05.624Z,55.74
2018-07-28T01:06:05.625Z,56.61
2018-07-28T01:07:05.636Z,56.90
2018-07-28T01:08:05.503Z,57.09
2018-07-28T01:09:05.503Z,57.58
2018-07-28T01:10:05.506Z,56.32
2018-07-28T01:11:05.385Z,55.74
2018-07-28T01:12:05.386Z,55.83
2018-07-28T01:13:05.383Z,56.32
2018-07-28T01:14:05.262Z,56.32
2018-07-28T01:15:05.209Z,55.93
2018-07-28T01:16:05.170Z,56.13
2018-07-28T01:17:05.132Z,54.96
2018-07-28T01:18:05.097Z,55.64
2018-07-28T01:19:05.057Z,56.32
2018-07-28T01:20:05.018Z,56.41
2018-07-28T01:21:04.981Z,56.23
2018-07-28T01:22:04.942Z,56.81
2018-07-28T01:23:04.909Z,57.45
2018-07-28T01:24:04.870Z,57.45
2018-07-28T01:25:04.830Z,57.94
2018-07-28T01:26:04.790Z,57.55
2018-07-28T01:27:04.756Z,58.23
2018-07-28T01:28:04.720Z,58.33
2018-07-28T01:29:04.677Z,58.91
2018-07-28T01:30:04.646Z,58.52
2018-07-28T01:31:04.601Z,58.72
2018-07-28T01:32:04.566Z,58.23
2018-07-28T01:33:04.526Z,59.49
2018-07-28T01:34:04.487Z,59.30
2018-07-28T01:35:04.451Z,59.49
2018-07-28T01:36:04.412Z,58.42
2018-07-28T01:37:04.375Z,57.81
2018-07-28T01:38:04.338Z,59.27
2018-07-28T01:39:04.339Z,59.94
2018-07-28T01:40:04.262Z,60.04
2018-07-28T01:41:04.223Z,59.27
2018-07-28T01:42:04.183Z,57.23
2018-07-28T01:43:04.145Z,58.01
2018-07-28T01:44:04.108Z,59.36
2018-07-28T01:45:04.069Z,59.56
2018-07-28T01:46:04.032Z,60.52
2018-07-28T01:47:03.995Z,60.72
2018-07-28T01:48:03.956Z,60.52
2018-07-28T01:49:03.921Z,60.72
2018-07-28T01:50:03.880Z,60.43
2018-07-28T01:51:03.841Z,60.91
2018-07-28T01:52:03.802Z,61.40
2018-07-28T01:53:03.771Z,61.27
2018-07-28T01:54:03.728Z,60.88
2018-07-28T01:55:03.691Z,61.18
2018-07-28T01:56:03.649Z,61.18
2018-07-28T01:57:03.610Z,62.04
2018-07-28T01:58:03.573Z,62.14
2018-07-28T01:59:03.540Z,61.76
2018-07-28T02:00:03.500Z,62.24
2018-07-28T02:01:03.457Z,62.34
2018-07-28T02:02:03.421Z,63.69
2018-07-28T02:03:03.384Z,63.98
2018-07-28T02:04:03.348Z,63.27
2018-07-28T02:05:03.305Z,63.95
2018-07-28T02:06:03.270Z,63.85
2018-07-28T02:07:03.229Z,63.76
2018-07-28T02:08:03.198Z,63.66
2018-07-28T02:09:03.153Z,63.66
2018-07-28T02:10:03.115Z,63.76
2018-07-28T02:11:03.076Z,63.76
2018-07-28T02:12:03.038Z,64.62
2018-07-28T02:13:03.001Z,64.92
2018-07-28T02:14:02.963Z,65.20
2018-07-28T02:15:02.923Z,65.08
2018-07-28T02:16:02.887Z,65.47
2018-07-28T02:17:02.845Z,65.37
2018-07-28T02:18:02.808Z,64.69
2018-07-28T02:19:02.769Z,65.47
2018-07-28T02:20:02.732Z,65.95
2018-07-28T02:21:02.689Z,66.05
2018-07-28T02:22:02.653Z,66.05
2018-07-28T02:23:02.615Z,66.05
2018-07-28T02:24:02.577Z,66.50
2018-07-28T02:25:02.535Z,67.08
2018-07-28T02:26:02.498Z,67.66
2018-07-28T02:27:02.462Z,67.36
2018-07-28T02:28:02.493Z,66.98
2018-07-28T02:29:02.485Z,66.98
2018-07-28T02:30:02.367Z,67.66
2018-07-28T02:31:02.366Z,66.98
2018-07-28T02:32:02.365Z,68.52
2018-07-28T02:33:02.248Z,68.04
2018-07-28T02:34:02.241Z,67.94
2018-07-28T02:35:02.271Z,68.30
2018-07-28T02:36:02.124Z,67.14
2018-07-28T02:37:02.130Z,67.43
2018-07-28T02:38:02.119Z,67.62
2018-07-28T02:39:02.006Z,68.30
2018-07-28T02:40:02.004Z,68.01
2018-07-28T02:41:02.000Z,68.68
2018-07-28T02:42:01.879Z,68.59
2018-07-28T02:43:01.880Z,69.26
2018-07-28T02:44:01.880Z,69.84
2018-07-28T02:45:01.836Z,69.36
2018-07-28T02:46:01.760Z,69.56
2018-07-28T02:47:01.758Z,69.07
2018-07-28T02:48:01.757Z,69.07
2018-07-28T02:49:01.639Z,69.56
2018-07-28T02:50:01.639Z,69.42
2018-07-28T02:51:01.637Z,69.13
2018-07-28T02:52:01.518Z,70.29
2018-07-28T02:53:01.518Z,70.00
2018-07-28T02:54:01.519Z,70.48
2018-07-28T02:55:01.400Z,70.20
2018-07-28T02:56:01.399Z,70.97
2018-07-28T02:57:01.395Z,70.97
2018-07-28T02:58:01.274Z,70.78
2018-07-28T02:59:01.287Z,70.78
2018-07-28T03:00:01.275Z,70.48
2018-07-28T03:01:01.159Z,71.26
2018-07-28T03:02:01.155Z,71.45
2018-07-28T03:03:01.156Z,71.26
2018-07-28T03:04:01.034Z,70.78
2018-07-28T03:05:01.034Z,70.10
2018-07-28T03:06:01.035Z,69.04
2018-07-28T03:07:00.916Z,67.30
2018-07-28T03:08:00.915Z,67.01
2018-07-28T03:09:00.916Z,66.72
2018-07-28T03:10:00.793Z,66.91
2018-07-28T03:11:00.795Z,67.11
2018-07-28T03:12:00.794Z,66.08
2018-07-28T03:13:00.673Z,66.36
2018-07-28T03:14:00.675Z,66.17
2018-07-28T03:15:00.674Z,66.27
2018-07-28T03:16:00.551Z,66.46
2018-07-28T03:17:00.552Z,66.75
2018-07-28T03:18:00.551Z,66.56
2018-07-28T03:19:00.434Z,67.17
2018-07-28T03:20:00.432Z,67.17
2018-07-28T03:21:00.430Z,66.78
2018-07-28T03:22:00.309Z,66.59
2018-07-28T03:23:00.312Z,66.50
2018-07-28T03:24:00.310Z,67.08
2018-07-28T03:25:00.268Z,66.88
2018-07-28T03:26:00.189Z,67.08
2018-07-28T03:27:00.190Z,66.59
2018-07-28T03:28:00.188Z,66.72
2018-07-28T03:29:00.068Z,66.72
2018-07-28T03:30:00.074Z,67.01
2018-07-28T03:31:00.068Z,66.43
2018-07-28T03:31:59.956Z,66.43
2018-07-28T03:32:59.947Z,66.82
2018-07-28T03:33:59.945Z,66.72
2018-07-28T03:34:59.826Z,67.01
2018-07-28T03:35:59.833Z,66.14
2018-07-28T03:36:59.829Z,65.95
2018-07-28T03:37:59.705Z,66.05
2018-07-28T03:38:59.706Z,66.14
2018-07-28T03:39:59.705Z,66.05
2018-07-28T03:40:59.589Z,66.14
2018-07-28T03:41:59.588Z,66.05
2018-07-28T03:42:59.585Z,66.24
2018-07-28T03:43:59.463Z,66.14
2018-07-28T03:44:59.464Z,66.24
2018-07-28T03:45:59.466Z,66.33
2018-07-28T03:46:59.344Z,66.24
2018-07-28T03:47:59.342Z,66.14
2018-07-28T03:48:59.341Z,66.33
2018-07-28T03:49:59.223Z,66.14
2018-07-28T03:50:59.223Z,66.63
2018-07-28T03:51:59.230Z,66.82
2018-07-28T03:52:59.180Z,66.43
2018-07-28T03:53:59.101Z,66.72
2018-07-28T03:54:59.106Z,66.82
2018-07-28T03:55:59.101Z,67.40
2018-07-28T03:56:58.981Z,67.11
2018-07-28T03:57:58.982Z,67.69
2018-07-28T03:58:58.982Z,67.21
2018-07-28T03:59:58.861Z,67.30
2018-07-28T04:00:58.868Z,67.11
2018-07-28T04:01:58.861Z,67.01
2018-07-28T04:02:58.742Z,67.40
2018-07-28T04:03:58.740Z,67.40
2018-07-28T04:04:58.740Z,67.69
2018-07-28T04:05:58.618Z,67.59
2018-07-28T04:06:58.619Z,67.49
2018-07-28T04:07:58.518Z,67.59
2018-07-28T04:08:58.479Z,67.88
2018-07-28T04:09:58.444Z,68.17
2018-07-28T04:10:58.402Z,68.17
2018-07-28T04:11:58.364Z,68.17
2018-07-28T04:12:58.326Z,68.08
2018-07-28T04:13:58.286Z,68.08
2018-07-28T04:14:58.250Z,68.66
2018-07-28T04:15:58.210Z,68.75
2018-07-28T04:16:58.169Z,69.33
2018-07-28T04:17:58.134Z,68.75
2018-07-28T04:18:58.093Z,69.14
2018-07-28T04:19:58.052Z,69.04
2018-07-28T04:20:58.017Z,68.85
2018-07-28T04:21:57.975Z,68.95
2018-07-28T04:22:57.938Z,69.04
2018-07-28T04:23:57.900Z,69.62
2018-07-28T04:24:57.858Z,69.62
2018-07-28T04:25:57.821Z,69.43
2018-07-28T04:26:57.782Z,69.72
2018-07-28T04:27:57.815Z,69.72
2018-07-28T04:28:57.812Z,69.53
2018-07-28T04:29:57.693Z,69.72
2018-07-28T04:30:57.691Z,70.59
2018-07-28T04:31:57.689Z,70.88
2018-07-28T04:32:57.570Z,70.78
2018-07-28T04:33:57.572Z,71.26
2018-07-28T04:34:57.569Z,71.66
2018-07-28T04:35:57.449Z,71.94
2018-07-28T04:36:57.455Z,71.56
2018-07-28T04:37:57.450Z,71.33
2018-07-28T04:38:57.328Z,71.62
2018-07-28T04:39:57.329Z,71.72
2018-07-28T04:40:57.328Z,71.81
2018-07-28T04:41:57.208Z,72.20
2018-07-28T04:42:57.207Z,71.81
2018-07-28T04:43:57.248Z,72.10
2018-07-28T04:44:57.086Z,71.75
2018-07-28T04:45:57.087Z,72.14
2018-07-28T04:46:57.085Z,72.00
2018-07-28T04:47:56.968Z,72.68
2018-07-28T04:48:56.966Z,71.81
2018-07-28T04:49:56.965Z,71.91
2018-07-28T04:50:56.960Z,71.62
2018-07-28T04:51:56.846Z,71.72
2018-07-28T04:52:56.845Z,72.00
2018-07-28T04:53:56.846Z,71.72
2018-07-28T04:54:56.724Z,72.39
2018-07-28T04:55:56.727Z,72.00
2018-07-28T04:56:56.724Z,72.49
2018-07-28T04:57:56.604Z,73.07
2018-07-28T04:58:56.605Z,73.07
2018-07-28T04:59:56.605Z,72.58
2018-07-28T05:00:56.482Z,73.16
2018-07-28T05:01:56.484Z,72.97
2018-07-28T05:02:56.482Z,73.55
2018-07-28T05:03:56.362Z,73.16
2018-07-28T05:04:56.364Z,73.46
2018-07-28T05:05:56.362Z,72.97
2018-07-28T05:06:56.242Z,73.16
2018-07-28T05:07:56.246Z,73.26
2018-07-28T05:08:56.244Z,72.68
2018-07-28T05:09:56.125Z,73.07
2018-07-28T05:10:56.123Z,72.49
2018-07-28T05:11:56.121Z,72.78
2018-07-28T05:12:56.001Z,72.97
2018-07-28T05:13:56.004Z,72.68
2018-07-28T05:14:56.000Z,73.07
2018-07-28T05:15:55.888Z,72.68
2018-07-28T05:16:55.879Z,73.36
2018-07-28T05:17:55.796Z,73.26
2018-07-28T05:18:55.759Z,72.78
2018-07-28T05:19:55.718Z,73.65
2018-07-28T05:20:55.680Z,73.26
2018-07-28T05:21:55.639Z,73.84
2018-07-28T05:22:55.603Z,73.26
2018-07-28T05:23:55.563Z,73.26
2018-07-28T05:24:55.525Z,73.78
2018-07-28T05:25:55.489Z,74.71
2018-07-28T05:26:55.453Z,73.55
2018-07-28T05:27:55.407Z,73.20
2018-07-28T05:28:55.372Z,72.39
2018-07-28T05:29:55.332Z,72.52
2018-07-28T05:30:55.292Z,74.46
2018-07-28T05:31:55.252Z,74.55
2018-07-28T05:32:55.214Z,74.55
2018-07-28T05:33:55.173Z,74.36
2018-07-28T05:34:55.138Z,74.17
2018-07-28T05:35:55.097Z,74.65
2018-07-28T05:36:55.058Z,75.71
2018-07-28T05:37:55.020Z,73.59
2018-07-28T05:38:55.032Z,74.85
2018-07-28T05:39:54.943Z,73.78
2018-07-28T05:40:54.902Z,73.39
2018-07-28T05:41:54.865Z,72.91
2018-07-28T05:42:54.831Z,72.72
2018-07-28T05:43:54.786Z,73.78
2018-07-28T05:44:54.751Z,73.78
2018-07-28T05:45:54.712Z,73.04
2018-07-28T05:46:54.670Z,73.49
2018-07-28T05:47:54.634Z,73.82
2018-07-28T05:48:54.592Z,74.49
2018-07-28T05:49:54.557Z,73.33
2018-07-28T05:50:54.516Z,73.24
2018-07-28T05:51:54.477Z,72.17
2018-07-28T05:52:54.436Z,71.78
2018-07-28T05:53:54.398Z,71.69
2018-07-28T05:54:54.362Z,72.85
2018-07-28T05:55:54.323Z,72.75
2018-07-28T05:56:54.283Z,72.75
2018-07-28T05:57:54.247Z,72.85
2018-07-28T05:58:54.215Z,71.98
2018-07-28T05:59:54.254Z,73.14
2018-07-28T06:00:54.203Z,72.75
2018-07-28T06:01:54.126Z,73.24
2018-07-28T06:02:54.125Z,72.95
2018-07-28T06:03:54.127Z,73.14
2018-07-28T06:04:54.009Z,73.04
2018-07-28T06:05:54.004Z,73.33
2018-07-28T06:06:54.008Z,73.04
2018-07-28T06:07:53.886Z,73.33
2018-07-28T06:08:53.886Z,73.24
2018-07-28T06:09:53.897Z,72.17
2018-07-28T06:10:53.765Z,72.08
2018-07-28T06:11:53.765Z,71.88
2018-07-28T06:12:53.764Z,71.59
2018-07-28T06:13:53.642Z,71.50
2018-07-28T06:14:53.645Z,71.20
2018-07-28T06:15:53.642Z,71.11
2018-07-28T06:16:53.523Z,70.53
2018-07-28T06:17:53.522Z,71.01
2018-07-28T06:18:53.523Z,70.62
2018-07-28T06:19:53.402Z,70.72
2018-07-28T06:20:53.400Z,71.30
2018-07-28T06:21:53.405Z,71.11
2018-07-28T06:22:53.280Z,71.11
2018-07-28T06:23:53.357Z,70.72
2018-07-28T06:24:53.278Z,69.95
2018-07-28T06:25:53.274Z,71.01
2018-07-28T06:26:53.160Z,71.14
2018-07-28T06:27:53.215Z,70.72
2018-07-28T06:28:53.159Z,70.62
2018-07-28T06:29:53.039Z,70.04
2018-07-28T06:30:53.037Z,70.62
2018-07-28T06:31:53.055Z,70.56
2018-07-28T06:32:52.920Z,70.24
2018-07-28T06:33:53.001Z,70.27
2018-07-28T06:34:52.916Z,70.37
2018-07-28T06:35:52.798Z,70.08
2018-07-28T06:36:52.796Z,70.27
2018-07-28T06:37:52.797Z,70.08
2018-07-28T06:38:52.677Z,69.59
2018-07-28T06:39:52.676Z,70.08
2018-07-28T06:40:52.675Z,70.08
2018-07-28T06:41:52.555Z,69.98
2018-07-28T06:42:52.558Z,70.27
2018-07-28T06:43:52.556Z,70.56
2018-07-28T06:44:52.434Z,69.79
2018-07-28T06:45:52.434Z,69.50
2018-07-28T06:46:52.436Z,70.08
2018-07-28T06:47:52.392Z,72.79
2018-07-28T06:48:52.314Z,74.82
2018-07-28T06:49:52.312Z,77.63
2018-07-28T06:50:52.318Z,76.28
2018-07-28T06:51:52.192Z,76.28
2018-07-28T06:52:52.192Z,77.88
2018-07-28T06:53:52.192Z,79.66
2018-07-28T06:54:52.071Z,80.79
2018-07-28T06:55:52.071Z,82.81
2018-07-28T06:56:52.073Z,84.84
2018-07-28T06:57:51.954Z,83.78
2018-07-28T06:58:51.956Z,83.69
2018-07-28T06:59:51.956Z,84.03
2018-07-28T07:00:51.830Z,86.74
2018-07-28T07:01:51.833Z,87.90
2018-07-28T07:02:51.836Z,88.67
2018-07-28T07:03:51.714Z,88.48
2018-07-28T07:04:51.794Z,88.82
2018-07-28T07:05:51.709Z,88.73
2018-07-28T07:06:51.588Z,88.43
2018-07-28T07:07:51.591Z,88.53
2018-07-28T07:08:51.594Z,86.65
2018-07-28T07:09:51.470Z,86.75
2018-07-28T07:10:51.471Z,87.71
2018-07-28T07:11:51.476Z,88.20
2018-07-28T07:12:51.353Z,89.36
2018-07-28T07:13:51.391Z,88.49
2018-07-28T07:14:51.346Z,90.23
2018-07-28T07:15:51.306Z,91.00
2018-07-28T07:16:51.228Z,91.39
2018-07-28T07:17:51.230Z,92.93
2018-07-28T07:18:51.227Z,93.80
2018-07-28T07:19:51.107Z,93.13
2018-07-28T07:20:51.105Z,94.09
2018-07-28T07:21:51.105Z,94.04
2018-07-28T07:22:50.986Z,94.29
2018-07-28T07:23:50.987Z,93.90
2018-07-28T07:24:51.041Z,93.90
2018-07-28T07:25:50.866Z,94.77
2018-07-28T07:26:50.864Z,95.93
2018-07-28T07:27:50.865Z,95.93
2018-07-28T07:28:50.744Z,96.22
2018-07-28T07:29:50.745Z,97.38
2018-07-28T07:30:50.746Z,96.61
2018-07-28T07:31:50.621Z,96.89
2018-07-28T07:32:50.623Z,96.31
2018-07-28T07:33:50.633Z,96.99
2018-07-28T07:34:50.503Z,97.19
2018-07-28T07:35:50.504Z,96.61
2018-07-28T07:36:50.506Z,96.65
2018-07-28T07:37:50.383Z,96.36
2018-07-28T07:38:50.381Z,97.42
2018-07-28T07:39:50.385Z,98.00
2018-07-28T07:40:50.261Z,99.99
2018-07-28T07:41:50.261Z,99.99
2018-07-28T07:42:50.260Z,99.99
2018-07-28T07:43:50.141Z,99.99
2018-07-28T07:44:50.144Z,99.99
2018-07-28T07:45:50.142Z,99.99
2018-07-28T07:46:50.024Z,99.99
2018-07-28T07:47:50.022Z,99.99
2018-07-28T07:48:50.020Z,99.99
2018-07-28T07:49:49.977Z,99.99
2018-07-28T07:50:49.904Z,99.99
2018-07-28T07:51:49.903Z,99.99
2018-07-28T07:52:49.898Z,99.99
2018-07-28T07:53:49.871Z,99.99
2018-07-28T07:54:49.779Z,98.49
2018-07-28T07:55:49.777Z,98.58
2018-07-28T07:56:49.658Z,99.16
2018-07-28T07:57:49.656Z,98.35
2018-07-28T07:58:49.662Z,98.63
2018-07-28T07:59:49.539Z,95.25
2018-07-28T08:00:49.539Z,92.73
2018-07-28T08:01:49.540Z,93.51
2018-07-28T08:02:49.416Z,92.83
2018-07-28T08:03:49.416Z,94.86
2018-07-28T08:04:49.451Z,88.85
2018-07-28T08:05:49.300Z,88.85
2018-07-28T08:06:49.295Z,90.12
2018-07-28T08:07:49.210Z,92.83
2018-07-28T08:08:49.168Z,88.81
2018-07-28T08:09:49.127Z,89.92
2018-07-28T08:10:49.092Z,89.19
2018-07-28T08:11:49.053Z,90.64
2018-07-28T08:12:49.017Z,92.87
2018-07-28T08:13:48.979Z,93.26
2018-07-28T08:14:48.936Z,90.06
2018-07-28T08:15:48.903Z,89.09
2018-07-28T08:16:48.860Z,89.00
2018-07-28T08:17:48.821Z,88.90
2018-07-28T08:18:48.785Z,89.48
2018-07-28T08:19:48.747Z,88.71
2018-07-28T08:20:48.711Z,87.26
2018-07-28T08:21:48.674Z,86.19
2018-07-28T08:22:48.635Z,86.96
2018-07-28T08:23:48.697Z,87.06
2018-07-28T08:24:48.620Z,85.90
2018-07-28T08:25:48.619Z,85.71
2018-07-28T08:26:48.548Z,84.25
2018-07-28T08:27:48.502Z,84.06
2018-07-28T08:28:48.498Z,85.41
2018-07-28T08:29:48.380Z,85.75
2018-07-28T08:30:48.381Z,87.40
2018-07-28T08:31:48.381Z,87.10
2018-07-28T08:32:48.257Z,85.94
2018-07-28T08:33:48.261Z,84.20
2018-07-28T08:34:48.257Z,83.72
2018-07-28T08:35:48.136Z,81.91
2018-07-28T08:36:48.136Z,82.01
2018-07-28T08:37:48.148Z,80.94
2018-07-28T08:38:48.141Z,81.04
2018-07-28T08:39:48.029Z,80.55
2018-07-28T08:40:48.016Z,79.68
2018-07-28T08:41:48.017Z,79.49
2018-07-28T08:42:47.893Z,78.33
2018-07-28T08:43:47.895Z,78.03
2018-07-28T08:44:47.892Z,76.00
2018-07-28T08:45:47.772Z,76.32
2018-07-28T08:46:47.775Z,76.23
2018-07-28T08:47:47.775Z,76.62
2018-07-28T08:48:47.690Z,76.52
2018-07-28T08:49:47.652Z,76.91
2018-07-28T08:50:47.651Z,76.62
2018-07-28T08:51:47.533Z,74.68
2018-07-28T08:52:47.533Z,74.10
2018-07-28T08:53:47.531Z,75.74
2018-07-28T08:54:47.521Z,76.14
2018-07-28T08:55:47.411Z,76.23
2018-07-28T08:56:47.410Z,75.65
2018-07-28T08:57:47.411Z,75.40
2018-07-28T08:58:47.290Z,77.04
2018-07-28T08:59:47.295Z,75.01
2018-07-28T09:00:47.292Z,75.20
2018-07-28T09:01:47.171Z,73.55
2018-07-28T09:02:47.173Z,73.94
2018-07-28T09:03:47.168Z,73.36
2018-07-28T09:04:47.056Z,74.52
2018-07-28T09:05:47.049Z,73.84
2018-07-28T09:06:47.048Z,73.16
2018-07-28T09:07:46.948Z,73.94
2018-07-28T09:08:46.942Z,74.23
2018-07-28T09:09:47.004Z,75.59
2018-07-28T09:10:46.930Z,75.49
2018-07-28T09:11:46.806Z,75.40
2018-07-28T09:12:46.807Z,74.52
2018-07-28T09:13:46.817Z,75.10
2018-07-28T09:14:46.693Z,75.59
2018-07-28T09:15:46.687Z,74.23
2018-07-28T09:16:46.685Z,72.19
2018-07-28T09:17:46.603Z,71.70
2018-07-28T09:18:46.573Z,72.09
2018-07-28T09:19:46.656Z,72.58
2018-07-28T09:20:46.446Z,71.90
2018-07-28T09:21:46.445Z,71.80
2018-07-28T09:22:46.445Z,72.00
2018-07-28T09:23:46.443Z,71.80
2018-07-28T09:24:46.323Z,72.77
2018-07-28T09:25:46.324Z,72.58
2018-07-28T09:26:46.400Z,73.16
2018-07-28T09:27:46.204Z,73.65
2018-07-28T09:28:46.201Z,73.16
2018-07-28T09:29:46.203Z,72.97
2018-07-28T09:30:46.084Z,72.97
2018-07-28T09:31:46.082Z,73.65
2018-07-28T09:32:46.099Z,72.83
2018-07-28T09:33:45.964Z,73.07
2018-07-28T09:34:45.970Z,74.19
2018-07-28T09:35:45.970Z,74.23
2018-07-28T09:36:45.850Z,74.39
2018-07-28T09:37:45.939Z,76.23
2018-07-28T09:38:45.840Z,75.74
2018-07-28T09:39:45.729Z,75.36
2018-07-28T09:40:45.696Z,75.55
2018-07-28T09:41:45.655Z,75.74
2018-07-28T09:42:45.621Z,75.74
2018-07-28T09:43:45.581Z,75.26
2018-07-28T09:44:45.543Z,73.42
2018-07-28T09:45:45.513Z,74.87
2018-07-28T09:47:45.433Z,74.00
2018-07-28T09:48:45.397Z,73.90
2018-07-28T09:49:48.158Z,74.23
2018-07-28T09:50:45.320Z,74.91
2018-07-28T09:51:45.280Z,74.52
2018-07-28T09:52:45.243Z,72.87
2018-07-28T09:53:45.205Z,72.09
2018-07-28T09:54:45.231Z,72.33
2018-07-28T09:55:45.233Z,72.61
2018-07-28T09:56:45.190Z,72.75
2018-07-28T09:57:45.115Z,72.36
2018-07-28T09:58:45.111Z,71.20
2018-07-28T09:59:44.992Z,70.22
2018-07-28T10:00:44.995Z,69.35
2018-07-28T10:01:45.000Z,69.84
2018-07-28T10:02:44.869Z,68.28
2018-07-28T10:03:44.951Z,68.87
2018-07-28T10:04:44.872Z,69.64
2018-07-28T10:05:44.872Z,69.45
2018-07-28T10:06:44.750Z,69.54
2018-07-28T10:07:44.753Z,69.19
2018-07-28T10:08:44.747Z,68.80
2018-07-28T10:09:44.628Z,69.09
2018-07-28T10:10:44.631Z,68.90
2018-07-28T10:11:44.642Z,69.29
2018-07-28T10:12:44.506Z,69.77
2018-07-28T10:13:44.507Z,70.55
2018-07-28T10:14:44.506Z,70.75
2018-07-28T10:15:44.388Z,70.84
2018-07-28T10:16:44.365Z,70.55
2018-07-28T10:17:44.312Z,70.55
2018-07-28T10:18:44.276Z,69.58
2018-07-28T10:19:44.239Z,69.77
2018-07-28T10:20:44.205Z,68.90
2018-07-28T10:21:44.166Z,67.73
2018-07-28T10:22:44.168Z,68.41
2018-07-28T10:23:44.100Z,68.70
2018-07-28T10:24:44.086Z,67.44
2018-07-28T10:25:44.024Z,68.22
2018-07-28T10:26:43.981Z,68.22
2018-07-28T10:27:43.946Z,69.29
2018-07-28T10:28:43.913Z,69.96
2018-07-28T10:29:43.871Z,69.38
2018-07-28T10:30:43.833Z,70.71
2018-07-28T10:31:43.797Z,70.12
2018-07-28T10:32:43.758Z,70.81
2018-07-28T10:33:43.727Z,71.39
2018-07-28T10:34:43.688Z,70.71
2018-07-28T10:35:43.648Z,71.20
2018-07-28T10:36:43.667Z,72.27
2018-07-28T10:37:43.575Z,72.17
2018-07-28T10:38:43.536Z,71.20
2018-07-28T10:39:44.713Z,70.12
2018-07-28T10:40:43.462Z,69.84
2018-07-28T10:41:43.428Z,69.58
2018-07-28T10:42:43.391Z,70.45
2018-07-28T10:43:43.352Z,69.87
2018-07-28T10:44:43.316Z,69.22
2018-07-28T10:45:43.363Z,65.72
2018-07-28T10:46:43.240Z,67.57
2018-07-28T10:47:43.204Z,68.32
2018-07-28T10:48:43.165Z,67.76
2018-07-28T10:49:43.131Z,67.34
2018-07-28T10:50:47.996Z,67.34
2018-07-28T10:51:43.068Z,67.93
2018-07-28T10:52:43.019Z,69.38
2018-07-28T10:53:42.986Z,67.73
2018-07-28T10:54:42.949Z,67.44
2018-07-28T10:55:42.915Z,67.63
2018-07-28T10:56:42.870Z,66.86
2018-07-28T10:57:42.833Z,66.96
2018-07-28T10:58:42.801Z,67.83
2018-07-28T10:59:42.769Z,68.22
2018-07-28T11:00:42.724Z,67.24
2018-07-28T11:01:42.702Z,67.15
2018-07-28T11:02:42.653Z,67.54
2018-07-28T11:03:42.613Z,68.60
2018-07-28T11:04:42.576Z,67.67
2018-07-28T11:05:42.539Z,67.38
2018-07-28T11:06:42.503Z,67.28
2018-07-28T11:07:42.467Z,66.69
2018-07-28T11:08:42.429Z,66.69
2018-07-28T11:09:42.392Z,67.47
2018-07-28T11:10:42.355Z,67.18
2018-07-28T11:11:42.323Z,67.21
2018-07-28T11:12:42.282Z,66.53
2018-07-28T11:13:42.281Z,65.75
2018-07-28T11:14:42.267Z,66.47
2018-07-28T11:15:42.267Z,65.72
2018-07-28T11:16:42.146Z,64.45
2018-07-28T11:17:42.146Z,63.87
2018-07-28T11:18:42.162Z,60.56
2018-07-28T11:19:42.151Z,60.78
2018-07-28T11:20:42.028Z,62.08
2018-07-28T11:21:42.024Z,62.47
2018-07-28T11:22:42.108Z,61.99
2018-07-28T11:23:41.906Z,60.82
2018-07-28T11:24:41.906Z,61.11
2018-07-28T11:25:41.907Z,60.13
2018-07-28T11:26:41.783Z,60.16
2018-07-28T11:27:41.782Z,59.87
2018-07-28T11:28:41.784Z,60.75
2018-07-28T11:29:41.741Z,62.21
2018-07-28T11:30:41.662Z,61.56
2018-07-28T11:31:41.699Z,62.05
2018-07-28T11:32:41.662Z,60.78
2018-07-28T11:33:41.620Z,59.93
2018-07-28T11:34:41.543Z,59.93
2018-07-28T11:35:41.547Z,59.18
2018-07-28T11:36:41.420Z,59.67
2018-07-28T11:37:41.420Z,58.40
2018-07-28T11:38:41.421Z,57.64
2018-07-28T11:39:41.420Z,58.33
2018-07-28T11:40:41.304Z,58.62
2018-07-28T11:41:41.300Z,55.42
2018-07-28T11:42:41.298Z,55.52
2018-07-28T11:43:41.179Z,55.81
2018-07-28T11:44:41.183Z,55.65
2018-07-28T11:45:41.180Z,55.84
2018-07-28T11:46:41.181Z,56.82
2018-07-28T11:47:41.059Z,53.91
2018-07-28T11:48:41.138Z,52.83
2018-07-28T11:49:41.057Z,52.34
2018-07-28T11:50:40.938Z,52.64
2018-07-28T11:51:40.938Z,52.64
2018-07-28T11:52:40.939Z,54.11
2018-07-28T11:53:40.894Z,52.61
2018-07-28T11:54:40.818Z,52.73
2018-07-28T11:55:40.820Z,54.40
2018-07-28T11:56:40.816Z,52.83
2018-07-28T11:57:40.701Z,52.51
2018-07-28T11:58:40.696Z,52.03
2018-07-28T11:59:40.700Z,51.83
2018-07-28T12:00:40.694Z,52.61
2018-07-28T12:01:40.599Z,53.30
2018-07-28T12:02:40.575Z,53.10
2018-07-28T12:03:40.653Z,53.20
2018-07-28T12:06:40.464Z,53.17
2018-07-28T12:07:40.452Z,54.42
2018-07-28T12:08:40.332Z,53.74
2018-07-28T12:09:40.336Z,53.15
2018-07-28T12:10:40.339Z,52.47
2018-07-28T12:11:40.212Z,52.42
2018-07-28T12:12:40.306Z,51.95
2018-07-28T12:13:40.222Z,52.15
2018-07-28T12:14:40.208Z,52.93
2018-07-28T12:15:40.092Z,52.61
2018-07-28T12:16:40.092Z,52.49
2018-07-28T12:17:40.092Z,52.59
2018-07-28T12:18:39.973Z,51.71
2018-07-28T12:19:39.984Z,52.10
2018-07-28T12:21:39.851Z,51.83
2018-07-28T12:22:39.848Z,51.81
2018-07-28T12:23:39.848Z,52.22
2018-07-28T12:24:39.852Z,52.78
2018-07-28T12:25:39.730Z,52.69
2018-07-28T12:26:39.732Z,51.07
2018-07-28T12:27:39.728Z,51.73
2018-07-28T12:28:39.616Z,52.81
2018-07-28T12:29:39.606Z,50.68
2018-07-28T12:30:39.607Z,49.75
2018-07-28T12:31:39.609Z,50.81
2018-07-28T12:32:39.497Z,51.46
2018-07-28T12:34:39.523Z,51.15
2018-07-28T12:35:39.367Z,51.83
2018-07-28T12:36:39.368Z,51.27
2018-07-28T12:37:39.365Z,51.10
2018-07-28T12:38:39.366Z,51.03
2018-07-28T12:40:39.248Z,49.75
2018-07-28T12:41:39.346Z,50.83
2018-07-28T12:43:39.124Z,51.00
2018-07-28T12:44:39.124Z,52.59
2018-07-28T12:45:39.131Z,51.03
2018-07-28T12:46:39.009Z,50.44
2018-07-28T12:47:39.004Z,49.82
2018-07-28T12:48:39.003Z,50.61
2018-07-28T12:50:38.883Z,50.12
2018-07-28T12:51:38.886Z,51.00
2018-07-28T12:52:38.840Z,50.90
2018-07-28T12:53:38.764Z,51.00
2018-07-28T12:54:38.760Z,50.39
2018-07-28T12:55:38.825Z,50.39
2018-07-28T12:56:38.640Z,50.78
2018-07-28T12:57:38.592Z,51.37
2018-07-28T12:58:38.554Z,50.81
2018-07-28T12:59:38.521Z,50.68